sensor_id;sensor_type;location;lat;lon;timestamp;temperature;humidity
71994;DHT22;59861;50.268;8.648;2023-02-28T00:00:09;15.20;52.30
71994;DHT22;59861;50.268;8.648;2023-02-28T00:02:37;15.20;51.80
71994;DHT22;59861;50.268;8.648;2023-02-28T00:05:04;15.10;51.80
71994;DHT22;59861;50.268;8.648;2023-02-28T00:07:31;15.10;51.90
71994;DHT22;59861;50.268;8.648;2023-02-28T00:09:58;15.10;51.90
71994;DHT22;59861;50.268;8.648;2023-02-28T00:12:24;15.10;51.90
71994;DHT22;59861;50.268;8.648;2023-02-28T00:14:51;15.10;52.00
71994;DHT22;59861;50.268;8.648;2023-02-28T00:17:18;15.00;52.00
71994;DHT22;59861;50.268;8.648;2023-02-28T00:19:51;15.10;52.00
71994;DHT22;59861;50.268;8.648;2023-02-28T00:22:20;15.10;52.00
71994;DHT22;59861;50.268;8.648;2023-02-28T00:24:43;15.10;52.00
71994;DHT22;59861;50.268;8.648;2023-02-28T00:27:10;15.10;52.00
71994;DHT22;59861;50.268;8.648;2023-02-28T00:29:37;15.10;52.00
71994;DHT22;59861;50.268;8.648;2023-02-28T00:32:04;15.00;52.00
71994;DHT22;59861;50.268;8.648;2023-02-28T00:34:31;15.00;52.00
71994;DHT22;59861;50.268;8.648;2023-02-28T00:36:59;15.00;52.00
71994;DHT22;59861;50.268;8.648;2023-02-28T00:39:26;15.00;52.00
71994;DHT22;59861;50.268;8.648;2023-02-28T00:41:53;15.00;51.90
71994;DHT22;59861;50.268;8.648;2023-02-28T00:44:20;15.00;52.60
71994;DHT22;59861;50.268;8.648;2023-02-28T00:46:47;15.00;51.90
71994;DHT22;59861;50.268;8.648;2023-02-28T00:49:14;15.00;51.90
71994;DHT22;59861;50.268;8.648;2023-02-28T00:51:41;15.00;51.80
71994;DHT22;59861;50.268;8.648;2023-02-28T00:54:07;15.00;51.80
71994;DHT22;59861;50.268;8.648;2023-02-28T00:56:34;15.00;51.80
71994;DHT22;59861;50.268;8.648;2023-02-28T00:59:01;15.00;51.80
71994;DHT22;59861;50.268;8.648;2023-02-28T01:01:28;15.00;51.80
71994;DHT22;59861;50.268;8.648;2023-02-28T01:03:55;15.10;51.80
71994;DHT22;59861;50.268;8.648;2023-02-28T01:06:21;15.00;51.70
71994;DHT22;59861;50.268;8.648;2023-02-28T01:08:48;15.10;51.70
71994;DHT22;59861;50.268;8.648;2023-02-28T01:11:16;15.10;51.70
71994;DHT22;59861;50.268;8.648;2023-02-28T01:13:43;15.10;51.60
71994;DHT22;59861;50.268;8.648;2023-02-28T01:16:10;15.00;51.60
71994;DHT22;59861;50.268;8.648;2023-02-28T01:18:37;15.00;51.60
71994;DHT22;59861;50.268;8.648;2023-02-28T01:21:05;15.10;51.60
71994;DHT22;59861;50.268;8.648;2023-02-28T01:23:32;15.10;51.60
71994;DHT22;59861;50.268;8.648;2023-02-28T01:26:06;15.10;51.50
71994;DHT22;59861;50.268;8.648;2023-02-28T01:28:33;15.10;51.50
71994;DHT22;59861;50.268;8.648;2023-02-28T01:31:00;15.10;51.40
71994;DHT22;59861;50.268;8.648;2023-02-28T01:33:27;15.10;51.40
71994;DHT22;59861;50.268;8.648;2023-02-28T01:36:04;15.10;51.40
71994;DHT22;59861;50.268;8.648;2023-02-28T01:38:28;15.00;51.30
71994;DHT22;59861;50.268;8.648;2023-02-28T01:40:55;15.10;51.30
71994;DHT22;59861;50.268;8.648;2023-02-28T01:43:24;15.10;51.20
71994;DHT22;59861;50.268;8.648;2023-02-28T01:45:52;15.10;51.20
71994;DHT22;59861;50.268;8.648;2023-02-28T01:48:19;15.10;51.20
71994;DHT22;59861;50.268;8.648;2023-02-28T01:50:47;15.00;51.20
71994;DHT22;59861;50.268;8.648;2023-02-28T01:53:16;15.00;51.20
71994;DHT22;59861;50.268;8.648;2023-02-28T01:55:45;15.00;51.30
71994;DHT22;59861;50.268;8.648;2023-02-28T01:58:11;15.00;51.50
71994;DHT22;59861;50.268;8.648;2023-02-28T02:00:38;14.90;51.70
71994;DHT22;59861;50.268;8.648;2023-02-28T02:03:07;14.90;51.70
71994;DHT22;59861;50.268;8.648;2023-02-28T02:05:35;14.90;51.80
71994;DHT22;59861;50.268;8.648;2023-02-28T02:08:09;14.90;51.80
71994;DHT22;59861;50.268;8.648;2023-02-28T02:10:35;14.80;51.80
71994;DHT22;59861;50.268;8.648;2023-02-28T02:13:05;14.90;51.90
71994;DHT22;59861;50.268;8.648;2023-02-28T02:15:35;14.90;51.90
71994;DHT22;59861;50.268;8.648;2023-02-28T02:18:09;14.80;51.90
71994;DHT22;59861;50.268;8.648;2023-02-28T02:31:13;14.80;51.90
71994;DHT22;59861;50.268;8.648;2023-02-28T02:36:23;14.80;51.90
71994;DHT22;59861;50.268;8.648;2023-02-28T02:38:52;14.80;51.90
71994;DHT22;59861;50.268;8.648;2023-02-28T02:41:30;14.80;51.90
71994;DHT22;59861;50.268;8.648;2023-02-28T02:46:48;14.80;51.90
71994;DHT22;59861;50.268;8.648;2023-02-28T02:48:55;14.80;51.80
71994;DHT22;59861;50.268;8.648;2023-02-28T02:51:23;14.80;51.90
71994;DHT22;59861;50.268;8.648;2023-02-28T02:53:58;14.80;51.80
71994;DHT22;59861;50.268;8.648;2023-02-28T02:56:26;14.80;51.80
71994;DHT22;59861;50.268;8.648;2023-02-28T02:58:54;14.80;51.80
71994;DHT22;59861;50.268;8.648;2023-02-28T03:01:23;14.80;51.80
71994;DHT22;59861;50.268;8.648;2023-02-28T03:04:01;14.80;51.90
71994;DHT22;59861;50.268;8.648;2023-02-28T03:06:28;14.80;51.70
71994;DHT22;59861;50.268;8.648;2023-02-28T03:08:55;14.80;51.80
71994;DHT22;59861;50.268;8.648;2023-02-28T03:11:21;14.80;51.70
71994;DHT22;59861;50.268;8.648;2023-02-28T03:13:53;14.80;51.70
71994;DHT22;59861;50.268;8.648;2023-02-28T03:16:26;14.80;51.70
71994;DHT22;59861;50.268;8.648;2023-02-28T03:19:06;14.80;51.70
71994;DHT22;59861;50.268;8.648;2023-02-28T03:21:34;14.80;51.60
71994;DHT22;59861;50.268;8.648;2023-02-28T03:24:04;14.80;51.60
71994;DHT22;59861;50.268;8.648;2023-02-28T03:26:31;14.80;51.60
71994;DHT22;59861;50.268;8.648;2023-02-28T03:31:50;14.80;51.60
71994;DHT22;59861;50.268;8.648;2023-02-28T03:34:41;14.80;51.50
71994;DHT22;59861;50.268;8.648;2023-02-28T03:36:47;14.80;51.50
71994;DHT22;59861;50.268;8.648;2023-02-28T03:39:16;14.80;51.50
71994;DHT22;59861;50.268;8.648;2023-02-28T03:41:44;14.80;51.40
71994;DHT22;59861;50.268;8.648;2023-02-28T03:44:17;14.80;51.30
71994;DHT22;59861;50.268;8.648;2023-02-28T03:46:42;14.90;51.30
71994;DHT22;59861;50.268;8.648;2023-02-28T03:49:12;14.90;51.30
71994;DHT22;59861;50.268;8.648;2023-02-28T03:51:38;14.90;51.20
71994;DHT22;59861;50.268;8.648;2023-02-28T03:54:07;14.80;51.30
71994;DHT22;59861;50.268;8.648;2023-02-28T03:56:37;14.80;51.50
71994;DHT22;59861;50.268;8.648;2023-02-28T03:59:11;14.70;51.50
71994;DHT22;59861;50.268;8.648;2023-02-28T04:01:42;14.70;51.70
71994;DHT22;59861;50.268;8.648;2023-02-28T04:04:07;14.70;51.80
71994;DHT22;59861;50.268;8.648;2023-02-28T04:06:34;14.70;51.80
71994;DHT22;59861;50.268;8.648;2023-02-28T04:09:02;14.70;51.80
71994;DHT22;59861;50.268;8.648;2023-02-28T04:11:32;14.70;51.80
71994;DHT22;59861;50.268;8.648;2023-02-28T04:13:58;14.70;51.80
71994;DHT22;59861;50.268;8.648;2023-02-28T04:16:24;14.70;51.80
71994;DHT22;59861;50.268;8.648;2023-02-28T04:18:52;14.70;51.80
71994;DHT22;59861;50.268;8.648;2023-02-28T04:21:19;14.70;51.80
71994;DHT22;59861;50.268;8.648;2023-02-28T04:23:48;14.70;51.80
71994;DHT22;59861;50.268;8.648;2023-02-28T04:26:15;14.70;51.90
71994;DHT22;59861;50.268;8.648;2023-02-28T04:28:42;14.70;51.80
71994;DHT22;59861;50.268;8.648;2023-02-28T04:31:09;14.60;51.70
71994;DHT22;59861;50.268;8.648;2023-02-28T04:33:36;14.70;51.80
71994;DHT22;59861;50.268;8.648;2023-02-28T04:36:08;14.70;51.80
71994;DHT22;59861;50.268;8.648;2023-02-28T04:38:35;14.70;51.80
71994;DHT22;59861;50.268;8.648;2023-02-28T04:41:02;14.70;51.80
71994;DHT22;59861;50.268;8.648;2023-02-28T04:43:30;14.60;51.70
71994;DHT22;59861;50.268;8.648;2023-02-28T04:45:57;14.60;51.70
71994;DHT22;59861;50.268;8.648;2023-02-28T04:48:25;14.60;51.80
71994;DHT22;59861;50.268;8.648;2023-02-28T04:50:52;14.60;51.80
71994;DHT22;59861;50.268;8.648;2023-02-28T04:53:19;14.60;51.70
71994;DHT22;59861;50.268;8.648;2023-02-28T04:55:46;14.60;51.70
71994;DHT22;59861;50.268;8.648;2023-02-28T04:58:13;14.70;51.70
71994;DHT22;59861;50.268;8.648;2023-02-28T05:00:40;14.60;51.70
71994;DHT22;59861;50.268;8.648;2023-02-28T05:03:07;14.60;51.60
71994;DHT22;59861;50.268;8.648;2023-02-28T05:05:33;14.60;51.70
71994;DHT22;59861;50.268;8.648;2023-02-28T05:08:00;14.60;51.70
71994;DHT22;59861;50.268;8.648;2023-02-28T05:10:27;14.60;52.00
71994;DHT22;59861;50.268;8.648;2023-02-28T05:12:54;14.60;51.70
71994;DHT22;59861;50.268;8.648;2023-02-28T05:15:21;14.60;51.70
71994;DHT22;59861;50.268;8.648;2023-02-28T05:17:48;14.60;51.80
71994;DHT22;59861;50.268;8.648;2023-02-28T05:20:15;14.60;51.90
71994;DHT22;59861;50.268;8.648;2023-02-28T05:22:42;14.60;51.80
71994;DHT22;59861;50.268;8.648;2023-02-28T05:25:15;14.60;51.80
71994;DHT22;59861;50.268;8.648;2023-02-28T05:27:38;14.60;51.80
71994;DHT22;59861;50.268;8.648;2023-02-28T05:30:05;14.60;51.50
71994;DHT22;59861;50.268;8.648;2023-02-28T05:32:32;14.60;51.80
71994;DHT22;59861;50.268;8.648;2023-02-28T05:34:59;14.60;51.80
71994;DHT22;59861;50.268;8.648;2023-02-28T05:37:26;14.60;51.70
71994;DHT22;59861;50.268;8.648;2023-02-28T05:39:53;14.70;51.80
71994;DHT22;59861;50.268;8.648;2023-02-28T05:42:20;14.70;51.70
71994;DHT22;59861;50.268;8.648;2023-02-28T05:44:47;14.70;51.70
71994;DHT22;59861;50.268;8.648;2023-02-28T05:47:14;14.70;51.60
71994;DHT22;59861;50.268;8.648;2023-02-28T05:49:41;14.70;51.60
71994;DHT22;59861;50.268;8.648;2023-02-28T05:52:08;14.70;51.60
71994;DHT22;59861;50.268;8.648;2023-02-28T05:54:35;14.70;51.60
71994;DHT22;59861;50.268;8.648;2023-02-28T05:57:02;14.80;51.60
71994;DHT22;59861;50.268;8.648;2023-02-28T05:59:28;14.80;51.50
71994;DHT22;59861;50.268;8.648;2023-02-28T06:01:55;14.80;51.40
71994;DHT22;59861;50.268;8.648;2023-02-28T06:04:22;14.80;51.50
71994;DHT22;59861;50.268;8.648;2023-02-28T06:06:49;14.90;51.60
71994;DHT22;59861;50.268;8.648;2023-02-28T06:09:16;14.90;51.60
71994;DHT22;59861;50.268;8.648;2023-02-28T06:11:43;14.90;51.60
71994;DHT22;59861;50.268;8.648;2023-02-28T06:14:17;14.90;51.60
71994;DHT22;59861;50.268;8.648;2023-02-28T06:16:44;14.90;51.70
71994;DHT22;59861;50.268;8.648;2023-02-28T06:19:11;14.90;51.90
71994;DHT22;59861;50.268;8.648;2023-02-28T06:21:38;14.90;51.60
71994;DHT22;59861;50.268;8.648;2023-02-28T06:24:05;14.90;51.60
71994;DHT22;59861;50.268;8.648;2023-02-28T06:26:32;14.90;51.50
71994;DHT22;59861;50.268;8.648;2023-02-28T06:28:59;14.90;51.60
71994;DHT22;59861;50.268;8.648;2023-02-28T06:31:26;14.90;51.50
71994;DHT22;59861;50.268;8.648;2023-02-28T06:33:55;14.90;51.50
71994;DHT22;59861;50.268;8.648;2023-02-28T06:36:22;14.90;51.30
71994;DHT22;59861;50.268;8.648;2023-02-28T06:38:49;14.90;51.20
71994;DHT22;59861;50.268;8.648;2023-02-28T06:41:17;14.90;51.20
71994;DHT22;59861;50.268;8.648;2023-02-28T06:43:44;15.00;51.30
71994;DHT22;59861;50.268;8.648;2023-02-28T06:46:12;14.90;51.20
71994;DHT22;59861;50.268;8.648;2023-02-28T06:48:39;14.90;51.10
71994;DHT22;59861;50.268;8.648;2023-02-28T06:51:08;15.00;51.00
71994;DHT22;59861;50.268;8.648;2023-02-28T06:53:35;14.90;51.00
71994;DHT22;59861;50.268;8.648;2023-02-28T06:56:05;15.00;51.00
71994;DHT22;59861;50.268;8.648;2023-02-28T06:58:33;15.00;51.00
71994;DHT22;59861;50.268;8.648;2023-02-28T07:00:59;14.90;50.90
71994;DHT22;59861;50.268;8.648;2023-02-28T07:03:27;14.90;51.00
71994;DHT22;59861;50.268;8.648;2023-02-28T07:05:53;15.00;51.00
71994;DHT22;59861;50.268;8.648;2023-02-28T07:08:25;14.90;50.90
71994;DHT22;59861;50.268;8.648;2023-02-28T07:10:53;15.00;50.90
71994;DHT22;59861;50.268;8.648;2023-02-28T07:13:20;15.00;50.80
71994;DHT22;59861;50.268;8.648;2023-02-28T07:15:57;15.00;50.70
71994;DHT22;59861;50.268;8.648;2023-02-28T07:18:15;15.00;50.60
71994;DHT22;59861;50.268;8.648;2023-02-28T07:20:42;15.10;50.60
71994;DHT22;59861;50.268;8.648;2023-02-28T07:23:09;15.00;50.70
71994;DHT22;59861;50.268;8.648;2023-02-28T07:25:36;15.10;50.60
71994;DHT22;59861;50.268;8.648;2023-02-28T07:28:03;15.10;50.60
71994;DHT22;59861;50.268;8.648;2023-02-28T07:30:29;15.10;50.60
71994;DHT22;59861;50.268;8.648;2023-02-28T07:32:56;15.10;50.60
71994;DHT22;59861;50.268;8.648;2023-02-28T07:35:23;15.00;50.70
71994;DHT22;59861;50.268;8.648;2023-02-28T07:37:50;15.00;50.70
71994;DHT22;59861;50.268;8.648;2023-02-28T07:40:17;15.10;50.60
71994;DHT22;59861;50.268;8.648;2023-02-28T07:42:44;15.00;50.60
71994;DHT22;59861;50.268;8.648;2023-02-28T07:45:11;15.00;50.60
71994;DHT22;59861;50.268;8.648;2023-02-28T07:47:38;15.10;50.60
71994;DHT22;59861;50.268;8.648;2023-02-28T07:50:05;15.00;50.60
71994;DHT22;59861;50.268;8.648;2023-02-28T07:52:32;15.00;50.60
71994;DHT22;59861;50.268;8.648;2023-02-28T07:54:59;15.00;50.90
71994;DHT22;59861;50.268;8.648;2023-02-28T07:57:26;15.00;50.70
71994;DHT22;59861;50.268;8.648;2023-02-28T07:59:53;15.00;50.70
71994;DHT22;59861;50.268;8.648;2023-02-28T08:02:19;15.00;50.70
71994;DHT22;59861;50.268;8.648;2023-02-28T08:04:46;15.00;50.70
71994;DHT22;59861;50.268;8.648;2023-02-28T08:07:14;15.00;50.80
71994;DHT22;59861;50.268;8.648;2023-02-28T08:09:42;15.00;50.80
71994;DHT22;59861;50.268;8.648;2023-02-28T08:12:09;15.10;50.90
71994;DHT22;59861;50.268;8.648;2023-02-28T08:14:37;15.00;50.80
71994;DHT22;59861;50.268;8.648;2023-02-28T08:17:05;15.00;50.90
71994;DHT22;59861;50.268;8.648;2023-02-28T08:19:32;15.00;51.00
71994;DHT22;59861;50.268;8.648;2023-02-28T08:21:59;14.90;50.90
71994;DHT22;59861;50.268;8.648;2023-02-28T08:24:26;14.90;51.10
71994;DHT22;59861;50.268;8.648;2023-02-28T08:26:53;14.90;51.10
71994;DHT22;59861;50.268;8.648;2023-02-28T08:29:19;14.90;51.10
71994;DHT22;59861;50.268;8.648;2023-02-28T08:31:46;15.00;51.10
71994;DHT22;59861;50.268;8.648;2023-02-28T08:34:14;14.90;51.10
71994;DHT22;59861;50.268;8.648;2023-02-28T08:36:41;15.00;51.00
71994;DHT22;59861;50.268;8.648;2023-02-28T08:39:09;15.00;51.00
71994;DHT22;59861;50.268;8.648;2023-02-28T08:41:36;15.00;51.10
71994;DHT22;59861;50.268;8.648;2023-02-28T08:44:03;14.90;51.00
71994;DHT22;59861;50.268;8.648;2023-02-28T08:46:30;15.00;51.10
71994;DHT22;59861;50.268;8.648;2023-02-28T08:48:57;14.90;51.00
71994;DHT22;59861;50.268;8.648;2023-02-28T08:51:26;15.00;51.00
71994;DHT22;59861;50.268;8.648;2023-02-28T08:53:58;15.00;51.10
71994;DHT22;59861;50.268;8.648;2023-02-28T08:56:25;15.00;51.10
71994;DHT22;59861;50.268;8.648;2023-02-28T08:58:53;15.00;51.40
71994;DHT22;59861;50.268;8.648;2023-02-28T09:01:22;15.00;51.00
71994;DHT22;59861;50.268;8.648;2023-02-28T09:03:49;15.00;51.00
71994;DHT22;59861;50.268;8.648;2023-02-28T09:06:17;15.00;51.00
71994;DHT22;59861;50.268;8.648;2023-02-28T09:08:44;15.00;51.10
71994;DHT22;59861;50.268;8.648;2023-02-28T09:11:11;15.00;51.10
71994;DHT22;59861;50.268;8.648;2023-02-28T09:13:38;15.00;51.00
71994;DHT22;59861;50.268;8.648;2023-02-28T09:16:06;15.00;51.20
71994;DHT22;59861;50.268;8.648;2023-02-28T09:18:33;15.00;51.20
71994;DHT22;59861;50.268;8.648;2023-02-28T09:21:03;15.00;51.10
71994;DHT22;59861;50.268;8.648;2023-02-28T09:23:30;15.00;51.20
71994;DHT22;59861;50.268;8.648;2023-02-28T09:25:57;15.00;51.10
71994;DHT22;59861;50.268;8.648;2023-02-28T09:28:24;15.00;51.30
71994;DHT22;59861;50.268;8.648;2023-02-28T09:30:51;15.00;51.30
71994;DHT22;59861;50.268;8.648;2023-02-28T09:33:19;15.00;51.50
71994;DHT22;59861;50.268;8.648;2023-02-28T09:35:47;15.00;51.60
71994;DHT22;59861;50.268;8.648;2023-02-28T09:38:14;15.00;51.60
71994;DHT22;59861;50.268;8.648;2023-02-28T09:40:49;15.00;51.60
71994;DHT22;59861;50.268;8.648;2023-02-28T09:43:15;15.00;51.60
71994;DHT22;59861;50.268;8.648;2023-02-28T09:45:47;15.00;51.60
71994;DHT22;59861;50.268;8.648;2023-02-28T09:48:14;15.00;51.60
71994;DHT22;59861;50.268;8.648;2023-02-28T09:50:49;15.10;51.70
71994;DHT22;59861;50.268;8.648;2023-02-28T09:53:24;15.10;51.60
71994;DHT22;59861;50.268;8.648;2023-02-28T09:55:48;15.10;51.60
71994;DHT22;59861;50.268;8.648;2023-02-28T09:58:20;15.10;51.60
71994;DHT22;59861;50.268;8.648;2023-02-28T10:00:46;15.10;51.60
71994;DHT22;59861;50.268;8.648;2023-02-28T10:03:25;15.00;51.60
71994;DHT22;59861;50.268;8.648;2023-02-28T10:06:01;15.00;51.60
71994;DHT22;59861;50.268;8.648;2023-02-28T10:08:25;15.10;51.70
71994;DHT22;59861;50.268;8.648;2023-02-28T10:10:54;15.10;51.70
71994;DHT22;59861;50.268;8.648;2023-02-28T10:13:25;15.10;51.70
71994;DHT22;59861;50.268;8.648;2023-02-28T10:15:59;15.00;51.70
71994;DHT22;59861;50.268;8.648;2023-02-28T10:18:24;15.10;52.40
71994;DHT22;59861;50.268;8.648;2023-02-28T10:20:51;15.00;51.80
71994;DHT22;59861;50.268;8.648;2023-02-28T10:23:20;15.00;52.00
71994;DHT22;59861;50.268;8.648;2023-02-28T10:25:50;15.00;51.90
71994;DHT22;59861;50.268;8.648;2023-02-28T10:28:16;15.00;51.90
71994;DHT22;59861;50.268;8.648;2023-02-28T10:30:46;15.00;52.00
71994;DHT22;59861;50.268;8.648;2023-02-28T10:33:21;15.00;51.90
71994;DHT22;59861;50.268;8.648;2023-02-28T10:35:47;15.00;52.00
71994;DHT22;59861;50.268;8.648;2023-02-28T10:38:20;15.00;51.90
71994;DHT22;59861;50.268;8.648;2023-02-28T10:40:43;15.00;51.90
71994;DHT22;59861;50.268;8.648;2023-02-28T10:45:58;15.00;52.10
71994;DHT22;59861;50.268;8.648;2023-02-28T10:48:32;15.00;52.20
71994;DHT22;59861;50.268;8.648;2023-02-28T10:51:00;15.00;52.10
71994;DHT22;59861;50.268;8.648;2023-02-28T10:55:59;15.10;52.80
71994;DHT22;59861;50.268;8.648;2023-02-28T10:58:29;15.10;52.10
71994;DHT22;59861;50.268;8.648;2023-02-28T11:00:55;15.10;52.10
71994;DHT22;59861;50.268;8.648;2023-02-28T11:03:32;15.20;52.20
71994;DHT22;59861;50.268;8.648;2023-02-28T11:06:04;15.20;52.50
71994;DHT22;59861;50.268;8.648;2023-02-28T11:10:55;13.30;32.60
71994;DHT22;59861;50.268;8.648;2023-02-28T11:13:28;12.60;35.70
71994;DHT22;59861;50.268;8.648;2023-02-28T11:18:20;13.70;50.40
71994;DHT22;59861;50.268;8.648;2023-02-28T11:20:52;14.10;51.70
71994;DHT22;59861;50.268;8.648;2023-02-28T11:23:20;14.40;51.60
71994;DHT22;59861;50.268;8.648;2023-02-28T11:25:51;14.70;51.90
71994;DHT22;59861;50.268;8.648;2023-02-28T11:28:27;14.80;52.00
71994;DHT22;59861;50.268;8.648;2023-02-28T11:31:05;15.00;51.70
71994;DHT22;59861;50.268;8.648;2023-02-28T11:33:32;15.10;51.50
71994;DHT22;59861;50.268;8.648;2023-02-28T11:36:04;15.10;51.50
71994;DHT22;59861;50.268;8.648;2023-02-28T11:38:32;15.20;52.20
71994;DHT22;59861;50.268;8.648;2023-02-28T11:41:04;15.20;51.50
71994;DHT22;59861;50.268;8.648;2023-02-28T11:48:40;15.30;51.30
71994;DHT22;59861;50.268;8.648;2023-02-28T11:53:50;15.50;51.40
71994;DHT22;59861;50.268;8.648;2023-02-28T12:04:21;15.70;51.40
71994;DHT22;59861;50.268;8.648;2023-02-28T12:06:48;15.70;51.40
71994;DHT22;59861;50.268;8.648;2023-02-28T12:14:35;15.70;51.50
71994;DHT22;59861;50.268;8.648;2023-02-28T12:17:03;15.80;51.00
71994;DHT22;59861;50.268;8.648;2023-02-28T12:19:44;15.80;51.50
71994;DHT22;59861;50.268;8.648;2023-02-28T12:22:12;15.80;51.70
71994;DHT22;59861;50.268;8.648;2023-02-28T12:24:50;15.80;51.70
71994;DHT22;59861;50.268;8.648;2023-02-28T12:27:16;15.90;52.40
71994;DHT22;59861;50.268;8.648;2023-02-28T12:32:14;16.00;51.80
71994;DHT22;59861;50.268;8.648;2023-02-28T12:34:42;16.00;51.80
71994;DHT22;59861;50.268;8.648;2023-02-28T12:37:21;16.10;51.80
71994;DHT22;59861;50.268;8.648;2023-02-28T12:39:40;16.10;51.80
71994;DHT22;59861;50.268;8.648;2023-02-28T12:42:10;16.10;51.80
71994;DHT22;59861;50.268;8.648;2023-02-28T12:44:46;16.20;51.90
71994;DHT22;59861;50.268;8.648;2023-02-28T12:47:17;16.20;51.90
71994;DHT22;59861;50.268;8.648;2023-02-28T12:49:44;16.20;52.00
71994;DHT22;59861;50.268;8.648;2023-02-28T12:52:09;16.20;52.10
71994;DHT22;59861;50.268;8.648;2023-02-28T13:05:24;16.20;52.10
71994;DHT22;59861;50.268;8.648;2023-02-28T13:07:54;16.20;52.20
71994;DHT22;59861;50.268;8.648;2023-02-28T13:10:18;16.20;52.20
71994;DHT22;59861;50.268;8.648;2023-02-28T13:12:49;16.20;52.20
71994;DHT22;59861;50.268;8.648;2023-02-28T13:15:21;16.20;52.30
71994;DHT22;59861;50.268;8.648;2023-02-28T13:17:54;16.20;52.30
71994;DHT22;59861;50.268;8.648;2023-02-28T13:20:23;16.20;52.40
71994;DHT22;59861;50.268;8.648;2023-02-28T13:22:52;16.20;52.40
71994;DHT22;59861;50.268;8.648;2023-02-28T13:27:58;16.20;52.30
71994;DHT22;59861;50.268;8.648;2023-02-28T13:33:22;16.20;52.40
71994;DHT22;59861;50.268;8.648;2023-02-28T13:35:46;16.20;52.50
71994;DHT22;59861;50.268;8.648;2023-02-28T13:38:17;16.20;52.40
71994;DHT22;59861;50.268;8.648;2023-02-28T13:40:44;16.20;52.60
71994;DHT22;59861;50.268;8.648;2023-02-28T13:43:11;16.20;52.60
71994;DHT22;59861;50.268;8.648;2023-02-28T13:45:38;16.20;52.80
71994;DHT22;59861;50.268;8.648;2023-02-28T13:48:15;16.20;52.70
71994;DHT22;59861;50.268;8.648;2023-02-28T14:06:30;16.20;53.10
71994;DHT22;59861;50.268;8.648;2023-02-28T14:08:59;16.10;53.00
71994;DHT22;59861;50.268;8.648;2023-02-28T14:11:28;16.10;53.10
71994;DHT22;59861;50.268;8.648;2023-02-28T14:13:55;16.10;53.00
71994;DHT22;59861;50.268;8.648;2023-02-28T14:16:25;16.10;53.00
71994;DHT22;59861;50.268;8.648;2023-02-28T14:19:11;16.10;53.00
71994;DHT22;59861;50.268;8.648;2023-02-28T14:21:39;16.10;53.00
71994;DHT22;59861;50.268;8.648;2023-02-28T14:29:17;16.10;53.10
71994;DHT22;59861;50.268;8.648;2023-02-28T14:36:36;16.10;53.10
71994;DHT22;59861;50.268;8.648;2023-02-28T14:39:13;16.10;53.10
71994;DHT22;59861;50.268;8.648;2023-02-28T14:41:41;16.10;53.00
71994;DHT22;59861;50.268;8.648;2023-02-28T14:44:15;16.00;53.10
71994;DHT22;59861;50.268;8.648;2023-02-28T14:46:43;16.00;53.10
71994;DHT22;59861;50.268;8.648;2023-02-28T14:49:29;16.10;53.10
71994;DHT22;59861;50.268;8.648;2023-02-28T14:51:41;16.00;53.30
71994;DHT22;59861;50.268;8.648;2023-02-28T14:54:12;16.00;53.40
71994;DHT22;59861;50.268;8.648;2023-02-28T14:56:37;16.00;53.60
71994;DHT22;59861;50.268;8.648;2023-02-28T14:59:05;16.00;53.60
71994;DHT22;59861;50.268;8.648;2023-02-28T15:01:32;16.00;53.60
71994;DHT22;59861;50.268;8.648;2023-02-28T15:04:03;16.00;53.70
71994;DHT22;59861;50.268;8.648;2023-02-28T15:06:28;16.00;53.80
71994;DHT22;59861;50.268;8.648;2023-02-28T15:09:15;16.00;53.90
71994;DHT22;59861;50.268;8.648;2023-02-28T15:11:42;16.00;53.90
71994;DHT22;59861;50.268;8.648;2023-02-28T15:14:13;16.00;53.90
71994;DHT22;59861;50.268;8.648;2023-02-28T15:16:39;16.00;53.90
71994;DHT22;59861;50.268;8.648;2023-02-28T15:19:52;16.00;53.90
71994;DHT22;59861;50.268;8.648;2023-02-28T15:21:36;15.90;53.70
71994;DHT22;59861;50.268;8.648;2023-02-28T15:24:04;16.00;53.70
71994;DHT22;59861;50.268;8.648;2023-02-28T15:26:37;16.00;53.80
71994;DHT22;59861;50.268;8.648;2023-02-28T15:29:01;16.00;53.80
71994;DHT22;59861;50.268;8.648;2023-02-28T15:31:29;16.00;53.80
71994;DHT22;59861;50.268;8.648;2023-02-28T15:33:57;16.00;53.70
71994;DHT22;59861;50.268;8.648;2023-02-28T15:36:25;16.10;53.80
71994;DHT22;59861;50.268;8.648;2023-02-28T15:38:54;16.00;53.70
71994;DHT22;59861;50.268;8.648;2023-02-28T15:41:27;16.00;53.80
71994;DHT22;59861;50.268;8.648;2023-02-28T15:44:13;16.00;53.80
71994;DHT22;59861;50.268;8.648;2023-02-28T15:46:19;15.90;53.90
71994;DHT22;59861;50.268;8.648;2023-02-28T15:48:53;16.00;53.90
71994;DHT22;59861;50.268;8.648;2023-02-28T15:51:22;16.00;53.90
71994;DHT22;59861;50.268;8.648;2023-02-28T15:53:54;16.00;54.00
71994;DHT22;59861;50.268;8.648;2023-02-28T15:56:23;16.00;54.10
71994;DHT22;59861;50.268;8.648;2023-02-28T15:58:55;15.90;54.10
71994;DHT22;59861;50.268;8.648;2023-02-28T16:01:27;16.00;54.20
71994;DHT22;59861;50.268;8.648;2023-02-28T16:03:57;15.90;54.40
71994;DHT22;59861;50.268;8.648;2023-02-28T16:06:26;15.90;54.40
71994;DHT22;59861;50.268;8.648;2023-02-28T16:08:52;15.90;54.30
71994;DHT22;59861;50.268;8.648;2023-02-28T16:11:20;15.90;54.40
71994;DHT22;59861;50.268;8.648;2023-02-28T16:13:47;15.90;54.30
71994;DHT22;59861;50.268;8.648;2023-02-28T16:16:21;15.90;54.50
71994;DHT22;59861;50.268;8.648;2023-02-28T16:18:48;15.80;54.70
71994;DHT22;59861;50.268;8.648;2023-02-28T16:21:15;15.80;54.80
71994;DHT22;59861;50.268;8.648;2023-02-28T16:23:42;15.90;55.20
71994;DHT22;59861;50.268;8.648;2023-02-28T16:26:10;15.90;55.20
71994;DHT22;59861;50.268;8.648;2023-02-28T16:28:37;15.90;55.20
71994;DHT22;59861;50.268;8.648;2023-02-28T16:31:05;15.90;55.20
71994;DHT22;59861;50.268;8.648;2023-02-28T16:33:33;16.00;55.40
71994;DHT22;59861;50.268;8.648;2023-02-28T16:35:59;15.90;55.20
71994;DHT22;59861;50.268;8.648;2023-02-28T16:38:26;15.90;55.50
71994;DHT22;59861;50.268;8.648;2023-02-28T16:40:54;15.90;55.40
71994;DHT22;59861;50.268;8.648;2023-02-28T16:43:22;15.90;55.50
71994;DHT22;59861;50.268;8.648;2023-02-28T16:45:54;15.90;55.50
71994;DHT22;59861;50.268;8.648;2023-02-28T16:48:18;15.90;55.50
71994;DHT22;59861;50.268;8.648;2023-02-28T16:50:45;15.90;55.50
71994;DHT22;59861;50.268;8.648;2023-02-28T16:53:11;15.90;55.50
71994;DHT22;59861;50.268;8.648;2023-02-28T16:55:39;15.90;55.30
71994;DHT22;59861;50.268;8.648;2023-02-28T16:58:06;15.90;55.30
71994;DHT22;59861;50.268;8.648;2023-02-28T17:00:33;15.90;55.30
71994;DHT22;59861;50.268;8.648;2023-02-28T17:03:00;15.90;55.20
71994;DHT22;59861;50.268;8.648;2023-02-28T17:05:28;15.90;55.20
71994;DHT22;59861;50.268;8.648;2023-02-28T17:07:56;16.00;55.00
71994;DHT22;59861;50.268;8.648;2023-02-28T17:10:24;16.10;55.00